Time;durP1;ratioP1;P1;durP2;ratioP2;P2;SDS_P1;SDS_P2;PMS_P1;PMS_P2;Temp;Humidity;BMP_temperature;BMP_pressure;BME280_temperature;BME280_humidity;BME280_pressure;Samples;Min_cycle;Max_cycle;Signal;HPM_P1;HPM_P2
2023/09/08 00:01:00;;;;;;;5.93;5.15;;;;;;;20.91;70.93;101437.97;3597252;39;20061;-67
2023/09/08 00:03:25;;;;;;;6.80;5.53;;;;;;;20.82;70.88;101422.47;3596788;39;20067;-68
2023/09/08 00:05:51;;;;;;;6.63;5.72;;;;;;;20.85;70.79;101430.38;3592529;39;20043;-66
2023/09/08 00:08:17;;;;;;;6.93;5.45;;;;;;;20.72;71.59;101417.03;3589284;39;20139;-68
2023/09/08 00:10:43;;;;;;;8.25;5.30;;;;;;;20.74;71.70;101423.22;3591092;39;20136;-67
2023/09/08 00:13:08;;;;;;;9.55;5.30;;;;;;;20.76;71.71;101443.03;3589368;39;20071;-65
2023/09/08 00:15:37;;;;;;;7.72;5.20;;;;;;;20.70;72.22;101431.81;3593132;39;20063;-66
2023/09/08 00:18:02;;;;;;;8.25;5.70;;;;;;;20.72;71.98;101435.28;3592744;39;20056;-66
2023/09/08 00:20:28;;;;;;;7.32;5.88;;;;;;;20.57;72.18;101410.28;3592671;39;20063;-65
2023/09/08 00:22:54;;;;;;;8.25;5.72;;;;;;;20.66;72.49;101436.72;3592410;39;20403;-64
2023/09/08 00:25:19;;;;;;;8.90;5.70;;;;;;;20.60;72.51;101431.84;3591745;39;20055;-66
2023/09/08 00:27:45;;;;;;;6.78;5.70;;;;;;;20.58;72.81;101437.47;3590615;39;20070;-66
2023/09/08 00:30:12;;;;;;;9.32;5.90;;;;;;;20.56;72.88;101434.00;3591965;39;20079;-66
2023/09/08 00:32:37;;;;;;;6.88;5.85;;;;;;;20.55;72.63;101439.59;3592352;39;20121;-66
2023/09/08 00:35:07;;;;;;;6.88;6.05;;;;;;;20.53;73.11;101442.50;3592136;39;20055;-65
2023/09/08 00:37:33;;;;;;;6.53;5.80;;;;;;;20.51;72.72;101444.50;3592849;39;20062;-66
2023/09/08 00:39:58;;;;;;;8.60;5.78;;;;;;;20.47;73.05;101432.09;3591849;39;20056;-66
2023/09/08 00:42:24;;;;;;;6.05;5.53;;;;;;;20.46;73.29;101430.38;3591285;39;20387;-67
2023/09/08 00:44:50;;;;;;;7.60;5.68;;;;;;;20.46;73.65;101435.84;3590635;39;20060;-67
2023/09/08 00:47:15;;;;;;;6.13;5.63;;;;;;;20.44;73.24;101434.28;3591374;39;20417;-66
2023/09/08 00:49:41;;;;;;;7.18;5.90;;;;;;;20.37;73.66;101428.53;3590055;39;20115;-66
2023/09/08 00:52:07;;;;;;;7.30;5.70;;;;;;;20.39;74.26;101431.94;3583941;39;20068;-64
2023/09/08 00:54:33;;;;;;;6.68;6.07;;;;;;;20.38;74.12;101432.97;3590579;39;20405;-67
2023/09/08 00:57:03;;;;;;;6.38;5.50;;;;;;;20.36;74.42;101430.41;3592634;39;20504;-66
2023/09/08 00:59:33;;;;;;;6.07;5.38;;;;;;;20.32;74.10;101433.53;3593157;39;20320;-67
2023/09/08 01:01:59;;;;;;;7.50;6.22;;;;;;;20.31;74.47;101429.94;3592615;39;20127;-67
2023/09/08 01:04:25;;;;;;;9.18;5.68;;;;;;;20.27;74.27;101425.78;3590965;39;20067;-66
2023/09/08 01:06:51;;;;;;;6.47;5.88;;;;;;;20.25;75.09;101427.78;3592969;39;20070;-66
2023/09/08 01:09:19;;;;;;;8.73;5.72;;;;;;;20.21;74.51;101428.25;3589839;39;20059;-66
2023/09/08 01:11:45;;;;;;;8.02;5.88;;;;;;;20.20;74.70;101429.22;3584830;39;20071;-67
2023/09/08 01:14:17;;;;;;;7.20;5.75;;;;;;;19.97;74.89;101394.00;3592383;39;20148;-67
2023/09/08 01:16:42;;;;;;;7.22;5.90;;;;;;;20.15;75.12;101425.06;3591867;39;20103;-67
2023/09/08 01:19:16;;;;;;;6.43;5.78;;;;;;;20.15;75.72;101427.78;3593085;39;20280;-66
2023/09/08 01:22:41;;;;;;;7.53;6.10;;;;;;;20.09;75.73;101431.09;3592406;39;20067;-66
2023/09/08 01:25:16;;;;;;;7.50;6.05;;;;;;;20.05;75.47;101431.53;3559309;40;20128;-66
2023/09/08 01:27:54;;;;;;;6.40;5.78;;;;;;;20.00;75.94;101429.19;3564153;40;20089;-67
2023/09/08 01:30:25;;;;;;;7.65;5.88;;;;;;;19.99;76.00;101432.09;3589123;39;20417;-67
2023/09/08 01:32:53;;;;;;;6.05;5.45;;;;;;;19.97;75.97;101434.94;3594558;39;20140;-66
2023/09/08 01:35:19;;;;;;;7.00;5.78;;;;;;;19.94;76.66;101437.94;3594078;39;20055;-66
2023/09/08 01:37:47;;;;;;;6.43;5.55;;;;;;;19.91;76.80;101432.78;3592911;39;20051;-67
2023/09/08 01:40:14;;;;;;;8.80;6.05;;;;;;;19.87;76.60;101429.47;3592088;39;20081;-67
2023/09/08 01:42:41;;;;;;;7.43;6.20;;;;;;;19.85;76.78;101431.50;3595072;39;20074;-65
2023/09/08 01:45:08;;;;;;;7.82;6.18;;;;;;;19.84;77.42;101428.88;3595264;39;20112;-66
2023/09/08 01:47:35;;;;;;;6.57;5.57;;;;;;;19.83;76.81;101438.94;3595504;39;20083;-66
2023/09/08 01:50:01;;;;;;;10.30;6.25;;;;;;;19.79;77.11;101431.16;3593081;39;20375;-67
2023/09/08 01:52:27;;;;;;;10.52;5.95;;;;;;;19.79;77.07;101434.78;3592680;39;20445;-65
2023/09/08 01:54:53;;;;;;;7.82;6.03;;;;;;;19.61;77.05;101404.53;3593603;39;20056;-65
2023/09/08 01:57:19;;;;;;;7.45;6.10;;;;;;;19.74;77.35;101428.88;3585851;39;20422;-65
2023/09/08 01:59:44;;;;;;;6.65;5.65;;;;;;;19.69;76.09;101425.69;3591581;39;20068;-63
2023/09/08 02:02:11;;;;;;;6.55;5.93;;;;;;;19.58;76.27;101412.16;3591029;39;20081;-65
2023/09/08 02:04:37;;;;;;;6.97;6.18;;;;;;;19.57;77.05;101427.66;3593640;39;20047;-66
2023/09/08 02:07:03;;;;;;;7.10;6.18;;;;;;;19.46;76.71;101408.66;3595847;39;20411;-64
2023/09/08 02:09:34;;;;;;;6.63;5.60;;;;;;;19.49;77.42;101428.31;3592437;39;20040;-66
2023/09/08 02:12:01;;;;;;;7.15;6.45;;;;;;;19.37;77.36;101409.47;3593096;39;20121;-66
2023/09/08 02:14:27;;;;;;;7.35;6.57;;;;;;;19.39;77.72;101419.25;3593685;39;20493;-65
2023/09/08 02:16:54;;;;;;;6.82;6.07;;;;;;;19.41;77.15;101427.28;3591409;39;20065;-65
2023/09/08 02:19:20;;;;;;;8.35;6.65;;;;;;;19.40;77.59;101422.84;3592806;39;20128;-65
2023/09/08 02:21:46;;;;;;;8.00;6.25;;;;;;;19.39;77.88;101429.31;3585909;39;20353;-65
2023/09/08 02:24:12;;;;;;;9.60;6.15;;;;;;;19.38;77.98;101420.25;3590458;39;20051;-66
2023/09/08 02:26:39;;;;;;;7.82;6.30;;;;;;;19.35;77.62;101419.69;3591911;39;20353;-65
2023/09/08 02:29:05;;;;;;;8.75;6.38;;;;;;;19.28;77.29;101413.03;3591504;39;20117;-66
2023/09/08 02:31:30;;;;;;;8.82;6.57;;;;;;;19.28;78.23;101410.28;3582235;39;20052;-65
2023/09/08 02:33:56;;;;;;;7.28;6.55;;;;;;;19.18;78.79;101405.66;3592022;39;20067;-66
2023/09/08 02:36:25;;;;;;;8.15;6.90;;;;;;;19.20;78.29;101411.00;3592139;39;20380;-66
2023/09/08 02:38:55;;;;;;;11.73;6.85;;;;;;;19.15;78.74;101402.34;3592798;39;20447;-64
2023/09/08 02:41:23;;;;;;;7.78;6.47;;;;;;;19.12;79.55;101411.66;3592647;39;20068;-65
2023/09/08 02:43:49;;;;;;;10.00;6.88;;;;;;;19.10;79.67;101407.38;3592996;39;20354;-65
2023/09/08 02:46:15;;;;;;;10.52;6.47;;;;;;;19.06;79.77;101409.50;3594579;39;20048;-64
2023/09/08 02:48:42;;;;;;;6.82;6.03;;;;;;;19.04;80.01;101414.22;3592279;39;20334;-65
2023/09/08 02:51:07;;;;;;;8.15;6.75;;;;;;;19.02;79.68;101417.06;3592222;39;20527;-63
2023/09/08 02:53:33;;;;;;;8.15;6.40;;;;;;;18.99;79.54;101416.47;3590770;39;20056;-63
2023/09/08 02:56:00;;;;;;;7.28;6.68;;;;;;;18.99;79.76;101416.47;3592820;39;20058;-61
2023/09/08 02:58:26;;;;;;;6.97;6.28;;;;;;;18.97;80.02;101418.50;3591757;39;20360;-64
2023/09/08 03:00:53;;;;;;;7.10;6.03;;;;;;;18.85;80.46;101393.19;3593394;39;20054;-64
2023/09/08 03:03:19;;;;;;;9.80;6.80;;;;;;;18.94;80.39;101414.16;3591342;39;20120;-63
2023/09/08 03:05:45;;;;;;;7.93;7.13;;;;;;;18.93;80.17;101417.88;3592104;39;20129;-65
2023/09/08 03:08:11;;;;;;;7.25;6.55;;;;;;;18.87;80.39;101406.66;3593075;39;20882;-65
2023/09/08 03:10:37;;;;;;;7.72;6.82;;;;;;;18.87;80.26;101412.09;3592006;39;20401;-65
2023/09/08 03:13:04;;;;;;;8.23;6.88;;;;;;;18.82;81.21;101414.38;3594494;39;20066;-64
2023/09/08 03:15:29;;;;;;;7.47;6.68;;;;;;;18.77;81.21;101412.94;3591716;39;20059;-65
2023/09/08 03:17:56;;;;;;;8.45;6.50;;;;;;;18.71;81.40;101405.25;3592114;39;20394;-66
2023/09/08 03:20:22;;;;;;;8.52;7.00;;;;;;;18.67;81.94;101398.31;3593155;39;20525;-64
2023/09/08 03:22:48;;;;;;;9.40;6.95;;;;;;;18.51;81.35;101381.59;3593167;39;20370;-65
2023/09/08 03:25:15;;;;;;;8.00;7.15;;;;;;;18.61;81.29;101398.84;3593974;39;20043;-65
2023/09/08 03:27:40;;;;;;;7.65;6.95;;;;;;;18.64;82.39;101406.75;3593516;39;20075;-63
2023/09/08 03:30:07;;;;;;;8.07;7.15;;;;;;;18.60;81.93;101409.91;3592333;39;20058;-65
2023/09/08 03:32:33;;;;;;;8.50;7.65;;;;;;;18.61;82.26;101403.44;3592940;39;20094;-65
2023/09/08 03:34:59;;;;;;;9.82;7.43;;;;;;;18.61;82.13;101409.75;3592351;39;20056;-63
2023/09/08 03:37:26;;;;;;;8.25;7.45;;;;;;;18.59;82.30;101403.59;3594730;39;20097;-65
2023/09/08 03:39:52;;;;;;;9.02;7.78;;;;;;;18.54;82.85;101403.13;3593640;39;20067;-64
2023/09/08 03:42:18;;;;;;;10.98;7.07;;;;;;;18.53;82.62;101407.72;3592404;39;20401;-64
2023/09/08 03:44:44;;;;;;;8.48;7.10;;;;;;;18.47;82.36;101396.47;3591112;39;20051;-64
2023/09/08 03:47:10;;;;;;;9.48;7.45;;;;;;;18.48;82.64;101403.66;3590687;39;20051;-63
2023/09/08 03:49:35;;;;;;;8.05;7.25;;;;;;;18.43;83.32;101404.06;3583514;39;20493;-64
2023/09/08 03:52:01;;;;;;;8.07;7.28;;;;;;;18.40;83.29;101398.00;3593487;39;20051;-63
2023/09/08 03:54:27;;;;;;;8.70;7.25;;;;;;;18.37;83.67;101399.13;3584700;39;20085;-65
2023/09/08 03:56:52;;;;;;;8.20;7.30;;;;;;;18.33;83.47;101398.53;3594880;39;20132;-65
2023/09/08 03:59:18;;;;;;;9.77;7.70;;;;;;;18.32;83.65;101391.34;3590327;39;20076;-64
2023/09/08 04:01:43;;;;;;;8.00;7.20;;;;;;;18.15;84.17;101366.59;3592055;39;20181;-63
2023/09/08 04:04:09;;;;;;;7.82;6.95;;;;;;;18.35;84.31;101394.81;3593183;39;20055;-63
2023/09/08 04:06:35;;;;;;;8.20;7.18;;;;;;;18.36;84.31;101401.97;3588942;39;20051;-64
2023/09/08 04:09:00;;;;;;;10.73;6.88;;;;;;;18.33;84.64;101393.09;3591644;39;20048;-63
2023/09/08 04:11:26;;;;;;;9.45;7.43;;;;;;;18.31;83.97;101392.34;3592458;39;20329;-65
2023/09/08 04:13:52;;;;;;;8.45;7.10;;;;;;;18.29;84.84;101391.59;3592061;39;20048;-65
2023/09/08 04:16:18;;;;;;;10.05;7.97;;;;;;;18.30;85.15;101387.91;3593081;39;20053;-64
2023/09/08 04:18:44;;;;;;;8.70;7.32;;;;;;;18.33;85.34;101393.09;3592493;39;20055;-65
2023/09/08 04:21:10;;;;;;;9.38;7.15;;;;;;;18.35;85.30;101395.66;3592438;39;20056;-66
2023/09/08 04:23:36;;;;;;;8.95;7.03;;;;;;;18.36;85.43;101391.09;3593374;39;20048;-66
2023/09/08 04:26:02;;;;;;;8.00;7.20;;;;;;;18.38;85.08;101394.53;3592603;39;20361;-66
2023/09/08 04:28:28;;;;;;;8.73;7.10;;;;;;;18.39;84.51;101388.09;3585049;39;20066;-68
2023/09/08 04:30:53;;;;;;;9.05;7.22;;;;;;;18.38;85.27;101383.66;3594437;39;20456;-66
2023/09/08 04:33:19;;;;;;;8.15;7.35;;;;;;;18.39;84.79;101386.22;3590849;39;20047;-67
2023/09/08 04:35:45;;;;;;;9.13;7.65;;;;;;;18.40;84.95;101385.25;3594467;39;20075;-66
2023/09/08 04:38:11;;;;;;;8.77;7.57;;;;;;;18.27;84.31;101360.09;3591328;39;20059;-66
2023/09/08 04:40:39;;;;;;;8.70;7.38;;;;;;;18.40;84.02;101385.25;3591274;39;20326;-66
2023/09/08 04:43:05;;;;;;;8.43;7.57;;;;;;;18.44;84.53;101388.56;3593196;39;20055;-68
2023/09/08 04:45:31;;;;;;;8.48;7.38;;;;;;;18.45;84.35;101387.56;3594361;39;20043;-66
2023/09/08 04:47:56;;;;;;;9.55;8.00;;;;;;;18.05;83.69;101326.56;3596483;39;20074;-67
2023/09/08 04:50:22;;;;;;;7.88;7.07;;;;;;;18.42;84.13;101390.56;3593093;39;20331;-66
2023/09/08 04:52:48;;;;;;;9.93;7.72;;;;;;;18.31;84.02;101373.28;3598631;39;20066;-66
2023/09/08 04:55:13;;;;;;;7.72;7.07;;;;;;;18.36;84.53;101381.06;3594202;39;20055;-66
2023/09/08 04:57:39;;;;;;;8.43;7.57;;;;;;;18.44;84.38;101389.44;3592561;39;20100;-66
2023/09/08 05:00:06;;;;;;;10.77;7.90;;;;;;;18.44;84.64;101391.31;3587285;39;20107;-66
2023/09/08 05:02:32;;;;;;;10.18;8.02;;;;;;;18.43;84.04;101392.31;3588829;39;20081;-65
2023/09/08 05:04:57;;;;;;;11.40;7.95;;;;;;;18.42;84.47;101401.44;3592435;39;20067;-66
2023/09/08 05:07:23;;;;;;;9.30;7.43;;;;;;;18.42;84.69;101398.72;3593064;39;20055;-66
2023/09/08 05:09:49;;;;;;;8.65;7.75;;;;;;;18.37;83.96;101393.69;3593386;39;20055;-65
2023/09/08 05:12:15;;;;;;;10.65;7.82;;;;;;;18.43;84.54;101400.47;3594088;39;20081;-67
2023/09/08 05:14:41;;;;;;;13.55;8.15;;;;;;;18.44;84.42;101400.31;3594588;39;20127;-66
2023/09/08 05:17:06;;;;;;;10.30;7.88;;;;;;;18.45;84.03;101401.19;3597719;39;20367;-66
2023/09/08 05:19:32;;;;;;;11.40;7.88;;;;;;;18.36;84.36;101391.09;3592686;39;20066;-66
2023/09/08 05:21:58;;;;;;;13.85;8.35;;;;;;;18.45;85.00;101401.19;3592895;39;20099;-68
2023/09/08 05:24:25;;;;;;;8.23;7.40;;;;;;;18.45;85.20;101407.50;3596787;39;20062;-67
2023/09/08 05:26:51;;;;;;;9.68;7.93;;;;;;;18.47;84.08;101410.09;3593821;39;20098;-65
2023/09/08 05:29:17;;;;;;;10.20;8.30;;;;;;;18.42;84.70;101387.84;3592866;39;20314;-64
2023/09/08 05:31:43;;;;;;;9.48;8.48;;;;;;;18.49;84.60;101408.09;3595893;39;20051;-67
2023/09/08 05:34:09;;;;;;;11.73;7.85;;;;;;;18.54;84.70;101405.84;3591913;39;20063;-67
2023/09/08 05:36:37;;;;;;;11.02;8.00;;;;;;;18.56;84.54;101409.31;3591882;39;20074;-66
2023/09/08 05:39:03;;;;;;;13.00;8.23;;;;;;;18.60;83.95;101415.34;3593230;39;20073;-67
2023/09/08 05:41:29;;;;;;;12.57;8.57;;;;;;;18.52;84.04;101386.03;3590570;39;20404;-66
2023/09/08 05:43:55;;;;;;;12.00;8.48;;;;;;;18.71;83.95;101412.53;3584034;40;20059;-67
2023/09/08 05:46:20;;;;;;;12.05;7.95;;;;;;;18.76;84.64;101415.78;3591993;39;20138;-66
2023/09/08 05:48:47;;;;;;;13.35;8.48;;;;;;;18.79;83.98;101418.22;3598656;39;20055;-66
2023/09/08 05:51:14;;;;;;;10.25;8.18;;;;;;;18.84;82.76;101421.44;3593258;39;20060;-66
2023/09/08 05:53:40;;;;;;;14.18;8.05;;;;;;;18.93;82.08;101420.59;3594136;39;20070;-66
2023/09/08 05:56:06;;;;;;;10.23;7.85;;;;;;;18.99;81.41;101422.78;3593009;39;20108;-67
2023/09/08 05:58:33;;;;;;;11.93;7.93;;;;;;;19.07;81.99;101418.53;3591227;39;20097;-68
2023/09/08 06:01:03;;;;;;;12.73;7.55;;;;;;;19.12;80.90;101422.56;3596113;39;20381;-66
2023/09/08 06:03:29;;;;;;;13.05;8.35;;;;;;;19.17;80.91;101414.84;3591867;39;20051;-66
2023/09/08 06:05:56;;;;;;;10.07;8.35;;;;;;;19.21;79.77;101419.03;3598803;39;20091;-65
2023/09/08 06:08:22;;;;;;;10.35;8.70;;;;;;;19.29;79.76;101415.63;3591584;39;20052;-65
2023/09/08 06:10:48;;;;;;;13.95;9.60;;;;;;;19.30;79.35;101414.63;3593808;39;20051;-67
2023/09/08 06:13:14;;;;;;;9.65;8.63;;;;;;;19.43;79.30;101431.59;3596280;39;20401;-65
2023/09/08 06:15:39;;;;;;;11.50;8.70;;;;;;;19.49;79.29;101425.59;3596152;39;20106;-66
2023/09/08 06:18:05;;;;;;;11.70;8.02;;;;;;;19.56;79.05;101433.22;3597960;39;20090;-65
2023/09/08 06:20:31;;;;;;;10.70;8.57;;;;;;;19.59;79.17;101428.34;3593269;39;20137;-66
2023/09/08 06:22:57;;;;;;;10.73;8.18;;;;;;;19.64;79.10;101445.22;3592783;39;20517;-66
2023/09/08 06:25:22;;;;;;;10.35;8.43;;;;;;;19.69;78.87;101437.47;3593357;39;20060;-67
2023/09/08 06:27:48;;;;;;;13.52;8.00;;;;;;;19.76;78.39;101450.53;3591517;39;20594;-66
2023/09/08 06:30:16;;;;;;;15.00;8.15;;;;;;;19.83;78.94;101438.09;3592542;39;20067;-67
2023/09/08 06:32:42;;;;;;;9.27;8.02;;;;;;;19.87;78.33;101439.53;3590766;39;20063;-66
2023/09/08 06:35:08;;;;;;;9.50;8.45;;;;;;;19.93;77.91;101433.50;3594780;39;20361;-67
2023/09/08 06:37:39;;;;;;;11.95;7.60;;;;;;;20.01;77.52;101433.66;3594440;39;20074;-67
2023/09/08 06:40:06;;;;;;;11.30;8.27;;;;;;;20.10;76.44;101434.66;3592300;39;20103;-66
2023/09/08 06:42:32;;;;;;;12.00;8.48;;;;;;;20.17;75.32;101433.97;3584273;39;20059;-67
2023/09/08 06:44:59;;;;;;;12.10;7.50;;;;;;;20.27;75.28;101435.84;3594704;39;20054;-67
2023/09/08 06:47:25;;;;;;;9.05;7.13;;;;;;;20.40;74.68;101439.16;3593773;39;20071;-68
2023/09/08 06:49:51;;;;;;;13.07;7.93;;;;;;;20.48;73.98;101444.75;3592189;39;20103;-67
2023/09/08 06:52:18;;;;;;;9.85;7.88;;;;;;;20.56;74.23;101430.41;3591325;39;20055;-67
2023/09/08 06:54:45;;;;;;;12.02;8.95;;;;;;;20.71;74.05;101439.91;3591749;39;20055;-68
2023/09/08 06:57:12;;;;;;;12.98;8.48;;;;;;;20.82;74.30;101447.06;3593044;39;20059;-68
2023/09/08 06:59:38;;;;;;;12.85;7.78;;;;;;;20.94;73.88;101445.88;3591760;39;20088;-68
2023/09/08 07:02:04;;;;;;;11.25;7.63;;;;;;;21.10;73.25;101451.59;3592968;39;20315;-67
2023/09/08 07:04:31;;;;;;;13.13;8.23;;;;;;;21.26;71.50;101450.13;3591751;39;20060;-67
2023/09/08 07:06:57;;;;;;;13.80;7.60;;;;;;;21.42;71.04;101450.38;3592645;39;20055;-67
2023/09/08 07:09:23;;;;;;;9.27;7.50;;;;;;;21.62;69.73;101450.28;3595735;39;20475;-67
2023/09/08 07:11:48;;;;;;;9.07;7.32;;;;;;;21.78;69.30;101450.47;3594032;39;20064;-68
2023/09/08 07:14:14;;;;;;;9.43;7.57;;;;;;;22.01;68.34;101451.78;3584141;39;20103;-67
2023/09/08 07:16:39;;;;;;;8.95;7.32;;;;;;;22.23;68.67;101446.88;3587281;39;20063;-69
2023/09/08 07:19:05;;;;;;;7.70;6.90;;;;;;;22.44;67.43;101452.91;3593420;39;20104;-67
2023/09/08 07:21:31;;;;;;;9.25;7.18;;;;;;;22.60;66.15;101440.41;3591470;39;20048;-67
2023/09/08 07:23:58;;;;;;;14.95;6.93;;;;;;;22.88;65.28;101452.09;3590848;39;21493;-68
2023/09/08 07:26:23;;;;;;;8.93;7.30;;;;;;;23.14;65.01;101452.13;3594164;39;20306;-67
2023/09/08 07:28:49;;;;;;;12.18;6.60;;;;;;;23.30;64.33;101460.47;3592735;39;20060;-68
2023/09/08 07:31:15;;;;;;;8.85;6.53;;;;;;;23.56;63.38;101454.06;3593169;39;20055;-68
2023/09/08 07:33:41;;;;;;;11.05;7.07;;;;;;;23.77;62.36;101457.28;3593150;39;20501;-68
2023/09/08 07:36:08;;;;;;;8.05;6.45;;;;;;;23.93;61.19;101459.22;3592800;39;20124;-67
2023/09/08 07:38:35;;;;;;;11.27;7.00;;;;;;;24.22;61.25;101466.16;3595767;39;20050;-69
2023/09/08 07:41:03;;;;;;;7.13;5.78;;;;;;;24.42;58.99;101455.75;3593612;39;20059;-68
2023/09/08 07:43:29;;;;;;;7.65;5.97;;;;;;;24.54;58.87;101457.13;3593909;39;20463;-66
2023/09/08 07:45:55;;;;;;;7.15;6.38;;;;;;;24.66;59.71;101455.78;3592744;39;20056;-67
2023/09/08 07:48:21;;;;;;;74.72;58.25;;;;;;;24.77;58.60;101455.44;3594004;39;20505;-68
2023/09/08 07:50:46;;;;;;;10.85;9.73;;;;;;;24.95;58.65;101449.72;3594669;39;20108;-66
2023/09/08 07:53:12;;;;;;;8.20;6.45;;;;;;;25.14;58.21;101455.94;3594960;39;20071;-66
2023/09/08 07:55:38;;;;;;;6.32;5.65;;;;;;;25.33;57.49;101455.53;3595263;39;20051;-67
2023/09/08 07:58:04;;;;;;;8.60;6.13;;;;;;;25.44;57.01;101457.06;3592368;39;20383;-68
2023/09/08 08:00:30;;;;;;;9.82;6.13;;;;;;;25.59;56.70;101449.75;3593602;39;20195;-67
2023/09/08 08:02:57;;;;;;;7.57;6.10;;;;;;;25.60;56.73;101429.47;3592634;39;20060;-67
2023/09/08 08:05:24;;;;;;;6.03;5.28;;;;;;;25.90;56.09;101451.72;3593249;39;20096;-67
2023/09/08 08:07:50;;;;;;;6.47;5.00;;;;;;;25.56;54.51;101373.03;3593849;39;20059;-67
2023/09/08 08:10:17;;;;;;;5.68;5.10;;;;;;;26.14;55.64;101445.22;3594581;39;20091;-67
2023/09/08 08:12:43;;;;;;;6.80;5.45;;;;;;;26.31;54.64;101451.50;3592772;39;20048;-67
2023/09/08 08:15:10;;;;;;;7.35;6.07;;;;;;;26.42;53.46;101448.31;3594718;39;20081;-67
2023/09/08 08:17:38;;;;;;;6.63;5.35;;;;;;;26.43;54.63;101427.97;3581234;39;20047;-67
2023/09/08 08:20:09;;;;;;;7.10;5.30;;;;;;;26.62;54.25;101437.66;3592602;39;20091;-67
2023/09/08 08:22:38;;;;;;;8.40;6.25;;;;;;;26.91;53.30;101456.19;3590426;39;20369;-67
2023/09/08 08:25:05;;;;;;;5.60;4.75;;;;;;;27.05;54.49;101451.75;3595153;39;20400;-67
2023/09/08 08:27:31;;;;;;;8.80;4.97;;;;;;;27.19;52.50;101459.22;3591308;39;20044;-67
2023/09/08 08:30:00;;;;;;;7.00;5.03;;;;;;;27.26;52.21;101460.19;3590493;39;20059;-67
2023/09/08 08:32:27;;;;;;;7.00;5.20;;;;;;;27.30;51.62;101464.25;3594083;39;20362;-66
2023/09/08 08:34:53;;;;;;;7.40;5.10;;;;;;;27.52;52.25;101465.22;3591098;39;20379;-67
2023/09/08 08:37:19;;;;;;;5.57;4.55;;;;;;;27.63;50.92;101465.81;3595179;39;20059;-67
2023/09/08 08:39:44;;;;;;;5.60;4.55;;;;;;;27.74;50.27;101457.03;3591764;39;20056;-68
2023/09/08 08:42:10;;;;;;;5.70;4.30;;;;;;;27.85;50.49;101461.25;3590557;39;20401;-66
2023/09/08 08:44:40;;;;;;;5.63;4.85;;;;;;;28.02;51.61;101465.50;3590617;39;20063;-67
2023/09/08 08:47:12;;;;;;;7.57;4.43;;;;;;;28.08;50.32;101466.63;3592074;39;20047;-68
2023/09/08 08:49:43;;;;;;;5.13;4.47;;;;;;;28.11;48.72;101466.25;3591622;39;20378;-67
2023/09/08 08:52:11;;;;;;;4.78;4.18;;;;;;;28.19;48.78;101460.56;3589651;39;20489;-68
2023/09/08 08:54:39;;;;;;;10.70;4.15;;;;;;;28.36;48.15;101456.53;3594199;39;20144;-68
2023/09/08 08:57:06;;;;;;;4.43;4.00;;;;;;;28.45;48.15;101457.28;3590282;39;20420;-67
2023/09/08 08:59:32;;;;;;;7.20;4.22;;;;;;;28.53;47.51;101456.28;3590343;39;20077;-67
2023/09/08 09:02:01;;;;;;;7.50;4.43;;;;;;;28.54;48.29;101435.88;3595313;39;20128;-67
2023/09/08 09:04:28;;;;;;;7.53;4.80;;;;;;;28.72;47.74;101447.31;3598309;39;20066;-67
2023/09/08 09:06:54;;;;;;;5.28;4.75;;;;;;;28.82;47.04;101456.13;3596068;39;20064;-67
2023/09/08 09:09:20;;;;;;;5.25;4.30;;;;;;;28.92;47.52;101453.00;3596668;39;20353;-66
2023/09/08 09:11:46;;;;;;;11.88;4.70;;;;;;;29.06;47.01;101459.56;3597306;39;20424;-67
2023/09/08 09:14:12;;;;;;;9.75;4.57;;;;;;;29.17;47.07;101458.97;3595025;39;20086;-67
2023/09/08 09:16:43;;;;;;;6.57;4.75;;;;;;;29.22;45.89;101456.47;3595555;39;20056;-66
2023/09/08 09:19:08;;;;;;;4.95;4.55;;;;;;;29.32;47.23;101454.19;3592732;39;20187;-67
2023/09/08 09:21:47;;;;;;;5.10;4.60;;;;;;;28.82;46.22;101348.19;3597944;39;20060;-67
2023/09/08 09:24:28;;;;;;;8.25;4.50;;;;;;;29.60;45.91;101464.38;3593308;39;20052;-67
2023/09/08 09:26:54;;;;;;;6.40;4.63;;;;;;;29.74;46.10;101460.63;3594469;39;20068;-67
2023/09/08 09:29:19;;;;;;;5.68;4.40;;;;;;;29.69;45.81;101424.38;3593107;39;20357;-66
2023/09/08 09:31:57;;;;;;;6.70;4.45;;;;;;;29.97;45.54;101453.91;3593935;39;20059;-67
2023/09/08 09:34:24;;;;;;;5.75;5.13;;;;;;;30.12;45.91;101459.28;3582105;39;20051;-67
2023/09/08 09:36:51;;;;;;;5.25;4.60;;;;;;;30.28;45.05;101456.16;3595460;39;20063;-66
2023/09/08 09:39:27;;;;;;;6.75;4.47;;;;;;;30.41;46.04;101449.78;3599777;39;20091;-67
2023/09/08 09:41:57;;;;;;;4.57;4.18;;;;;;;30.26;44.44;101398.13;3598568;39;20051;-65
2023/09/08 09:44:24;;;;;;;4.78;4.32;;;;;;;30.71;44.74;101445.56;3598173;39;20099;-68
2023/09/08 09:46:53;;;;;;;8.05;4.28;;;;;;;30.94;43.15;101450.72;3598095;39;20093;-67
2023/09/08 09:49:19;;;;;;;5.30;4.53;;;;;;;31.13;44.06;101453.69;3597649;39;20596;-68
2023/09/08 09:51:53;;;;;;;8.50;4.50;;;;;;;31.23;43.46;101432.72;3595486;39;20121;-67
2023/09/08 09:54:19;;;;;;;4.85;4.45;;;;;;;31.38;42.16;101446.41;3594930;39;20056;-67
2023/09/08 09:56:50;;;;;;;6.55;4.68;;;;;;;31.47;42.60;101454.53;3597319;39;20480;-67
2023/09/08 09:59:15;;;;;;;5.78;3.85;;;;;;;31.58;43.51;101446.34;3596202;39;20044;-67
2023/09/08 10:01:42;;;;;;;6.03;4.47;;;;;;;31.74;41.67;101450.56;3597610;39;20326;-68
2023/09/08 10:04:09;;;;;;;4.57;4.18;;;;;;;31.85;43.20;101443.47;3596452;39;20072;-68
2023/09/08 10:06:39;;;;;;;6.90;4.30;;;;;;;31.96;42.44;101448.34;3598509;39;20130;-67
2023/09/08 10:09:13;;;;;;;7.90;4.28;;;;;;;32.16;41.54;101445.50;3596568;39;20078;-66
2023/09/08 10:11:47;;;;;;;5.20;4.00;;;;;;;32.22;42.67;101446.50;3597111;39;20413;-68
2023/09/08 10:14:15;;;;;;;6.63;4.30;;;;;;;32.35;40.88;101426.94;3595491;39;20455;-67
2023/09/08 10:16:45;;;;;;;5.70;3.83;;;;;;;32.53;43.05;101449.31;3596288;39;20061;-67
2023/09/08 10:19:11;;;;;;;4.63;4.22;;;;;;;32.51;41.46;101456.19;3593790;39;20877;-67
2023/09/08 10:21:42;;;;;;;5.93;4.00;;;;;;;32.57;41.90;101452.50;3596550;39;20048;-67
2023/09/08 10:24:34;;;;;;;5.60;4.43;;;;;;;32.62;40.83;101451.84;3598108;39;20529;-67
2023/09/08 10:27:12;;;;;;;5.10;4.40;;;;;;;32.86;41.82;101453.78;3597187;39;20052;-67
2023/09/08 10:29:39;;;;;;;4.93;4.43;;;;;;;32.98;39.99;101456.69;3595792;39;20061;-67
2023/09/08 10:32:09;;;;;;;5.88;4.43;;;;;;;32.99;41.36;101442.56;3595863;39;20147;-69
2023/09/08 10:34:38;;;;;;;6.15;4.45;;;;;;;32.81;42.10;101431.31;3596796;39;20842;-67
2023/09/08 10:37:22;;;;;;;4.28;3.70;;;;;;;33.18;41.92;101439.81;3597200;39;20063;-67
2023/09/08 10:39:48;;;;;;;6.65;4.10;;;;;;;33.32;39.05;101444.16;3596992;39;20129;-67
2023/09/08 10:42:17;;;;;;;5.22;4.00;;;;;;;33.41;40.70;101445.56;3590006;39;20364;-67
2023/09/08 10:44:44;;;;;;;5.05;3.83;;;;;;;33.50;39.75;101441.41;3596954;39;20248;-68
2023/09/08 10:47:10;;;;;;;6.50;4.65;;;;;;;33.68;40.43;101445.25;3593302;39;20340;-68
2023/09/08 10:49:40;;;;;;;7.68;4.38;;;;;;;33.66;39.08;101436.28;3596906;39;20047;-67
2023/09/08 10:52:09;;;;;;;5.90;4.13;;;;;;;33.76;38.58;101436.59;3597172;39;20175;-68
2023/09/08 10:54:42;;;;;;;4.88;4.38;;;;;;;33.90;38.56;101445.63;3589825;39;20044;-68
2023/09/08 10:57:15;;;;;;;5.18;4.50;;;;;;;34.00;38.50;101442.28;3593897;39;20059;-68
2023/09/08 11:00:04;;;;;;;7.60;4.32;;;;;;;34.12;37.82;101440.41;3595663;39;20063;-68
2023/09/08 11:02:42;;;;;;;4.53;3.88;;;;;;;34.25;39.36;101434.63;3587167;39;20048;-68
2023/09/08 11:05:11;;;;;;;6.88;5.82;;;;;;;34.24;40.95;101435.72;3592262;39;20119;-67
2023/09/08 11:07:38;;;;;;;5.30;4.18;;;;;;;34.25;38.44;101439.38;3591877;39;20056;-67
2023/09/08 11:10:08;;;;;;;5.85;4.22;;;;;;;34.42;38.75;101441.25;3594022;39;20390;-67
2023/09/08 11:12:34;;;;;;;6.45;4.30;;;;;;;34.61;38.41;101432.84;3590345;39;20052;-67
2023/09/08 11:15:07;;;;;;;6.50;4.50;;;;;;;34.78;39.26;101431.03;3592032;39;20063;-66
2023/09/08 11:17:41;;;;;;;4.68;3.92;;;;;;;34.96;37.20;101434.81;3591163;39;20392;-68
2023/09/08 11:20:10;;;;;;;5.18;3.95;;;;;;;35.05;38.04;101433.41;3593810;39;20395;-68
2023/09/08 11:22:38;;;;;;;4.28;3.85;;;;;;;35.21;37.16;101438.25;3592089;39;20051;-68
2023/09/08 11:25:07;;;;;;;3.92;3.60;;;;;;;35.27;35.95;101420.50;3592976;39;20128;-68